Time;durP1;ratioP1;P1;durP2;ratioP2;P2;SDS_P1;SDS_P2;PMS_P1;PMS_P2;Temp;Humidity;BMP_temperature;BMP_pressure;BME280_temperature;BME280_humidity;BME280_pressure;Samples;Min_cycle;Max_cycle;Signal;HPM_P1;HPM_P2
2022/01/09 14:39:09;;;;;;;52.43;25.52;;;;;;;-2.36;100.00;98749.30;1787925;78;23154;-60
2022/01/09 14:41:37;;;;;;;52.30;25.57;;;;;;;-2.32;100.00;98754.00;1763229;80;21601;-61
2022/01/09 14:44:05;;;;;;;;;;;;;;;-2.11;100.00;98755.62;1767839;80;21467;-61
2022/01/09 14:46:33;;;;;;;34.98;19.80;;;;;;;-1.92;100.00;98748.64;1761578;80;20166;-62
2022/01/09 14:48:59;;;;;;;;;;;;;;;-1.78;100.00;98751.95;1763668;80;21558;-60
2022/01/09 14:51:26;;;;;;;27.63;16.20;;;;;;;-1.61;100.00;98758.27;1769192;80;20428;-64
2022/01/09 14:53:54;;;;;;;29.15;16.05;;;;;;;-1.53;100.00;98743.17;1757035;80;21506;-64
2022/01/09 14:56:22;;;;;;;30.05;18.02;;;;;;;-1.37;100.00;98752.05;1766887;80;21490;-64
2022/01/09 14:58:49;;;;;;;27.80;16.90;;;;;;;-1.25;99.45;98750.23;1767495;80;21537;-65
2022/01/09 15:01:18;;;;;;;28.45;16.30;;;;;;;-1.13;99.20;98754.00;1753892;80;21542;-64
2022/01/09 15:03:45;;;;;;;24.95;14.90;;;;;;;-1.00;98.68;98753.00;1756089;80;21695;-63
2022/01/09 15:06:13;;;;;;;28.45;16.25;;;;;;;-0.87;98.26;98745.95;1752895;80;20994;-64
2022/01/09 15:08:40;;;;;;;;;;;;;;;-0.80;97.84;98745.02;1772475;80;21829;-62
2022/01/09 15:11:07;;;;;;;26.68;14.93;;;;;;;-0.75;97.82;98746.69;1768304;80;20511;-62
2022/01/09 15:13:34;;;;;;;23.67;14.73;;;;;;;-0.68;97.54;98749.63;1770211;80;21521;-60
2022/01/09 15:16:01;;;;;;;26.57;15.25;;;;;;;-0.57;97.00;98749.52;1774170;80;21545;-62
2022/01/09 15:18:28;;;;;;;27.45;16.93;;;;;;;-0.49;96.62;98748.55;1762451;80;21435;-62
2022/01/09 15:20:54;;;;;;;28.00;16.67;;;;;;;-0.45;96.55;98745.05;1756827;80;21880;-64
2022/01/09 15:23:22;;;;;;;32.10;18.02;;;;;;;-0.42;96.47;98749.31;1758334;80;21514;-61
2022/01/09 15:25:49;;;;;;;26.10;16.52;;;;;;;-0.42;96.39;98752.74;1757903;80;21030;-60
2022/01/09 15:28:16;;;;;;;30.47;17.70;;;;;;;-0.29;96.13;98748.72;1773624;80;21420;-61
2022/01/09 15:30:45;;;;;;;31.20;19.03;;;;;;;-0.19;95.73;98745.13;1752035;80;21560;-59
2022/01/09 15:33:12;;;;;;;30.85;19.73;;;;;;;-0.09;95.47;98744.14;1736971;81;21827;-61
2022/01/09 15:35:40;;;;;;;33.70;19.77;;;;;;;-0.10;95.27;98745.00;1717763;82;21521;-61
2022/01/09 15:38:06;;;;;;;22.13;13.50;;;;;;;-0.08;95.30;98749.71;1711140;82;21447;-60
2022/01/09 15:40:35;;;;;;;28.95;17.52;;;;;;;0.00;94.71;98745.75;1697854;83;21487;-64
2022/01/09 15:43:03;;;;;;;28.20;17.00;;;;;;;0.06;94.34;98743.07;1702406;83;21006;-64
2022/01/09 15:45:31;;;;;;;26.95;16.52;;;;;;;0.10;94.06;98744.73;1706323;83;21518;-63
2022/01/09 15:47:57;;;;;;;27.60;15.90;;;;;;;0.07;93.99;98739.59;1709806;83;21488;-61
2022/01/09 15:50:26;;;;;;;27.10;15.33;;;;;;;0.04;94.00;98743.53;1705257;83;21085;-59
2022/01/09 15:52:52;;;;;;;27.85;16.32;;;;;;;0.09;93.78;98743.45;1697405;82;21543;-62
2022/01/09 15:55:19;;;;;;;33.13;17.35;;;;;;;0.21;93.29;98742.41;1698863;83;21605;-62
2022/01/09 15:57:46;;;;;;;29.27;16.80;;;;;;;0.26;92.87;98744.49;1707512;83;22217;-61
2022/01/09 16:00:14;;;;;;;29.42;16.67;;;;;;;0.22;92.70;98746.27;1701742;83;21027;-63
2022/01/09 16:02:41;;;;;;;27.73;15.95;;;;;;;0.21;92.64;98743.28;1699792;83;21705;-64
2022/01/09 16:05:11;;;;;;;26.55;16.15;;;;;;;0.25;92.23;98747.97;1706174;83;21554;-63
2022/01/09 16:07:40;;;;;;;25.55;15.53;;;;;;;0.34;91.58;98755.14;1699624;83;21585;-63
2022/01/09 16:10:07;;;;;;;27.73;16.00;;;;;;;0.31;91.29;98757.77;1701705;83;21829;-62
2022/01/09 16:12:37;;;;;;;32.80;17.57;;;;;;;0.27;91.30;98758.70;1695290;83;21520;-63
2022/01/09 16:15:05;;;;;;;29.65;16.17;;;;;;;0.22;91.24;98756.61;1703613;83;21581;-61
2022/01/09 16:17:33;;;;;;;28.67;15.48;;;;;;;0.26;90.90;98754.38;1699904;82;21487;-63
2022/01/09 16:20:00;;;;;;;23.53;15.17;;;;;;;0.36;90.48;98752.54;1702159;83;21472;-67
2022/01/09 16:22:27;;;;;;;26.97;15.93;;;;;;;0.37;90.10;98751.64;1709665;83;21814;-61
2022/01/09 16:24:53;;;;;;;26.40;15.23;;;;;;;0.31;89.93;98750.45;1697077;83;21581;-62
2022/01/09 16:27:20;;;;;;;24.65;14.60;;;;;;;0.27;89.94;98752.68;1699679;82;21594;-62
2022/01/09 16:29:47;;;;;;;25.25;15.72;;;;;;;0.27;89.55;98744.92;1706582;83;21475;-62
2022/01/09 16:32:14;;;;;;;27.37;16.35;;;;;;;0.33;89.20;98750.83;1701251;83;21452;-62
2022/01/09 16:34:41;;;;;;;25.50;16.60;;;;;;;0.34;89.05;98747.39;1696545;83;22216;-61
2022/01/09 16:37:08;;;;;;;26.90;16.27;;;;;;;0.32;88.99;98754.31;1697173;83;21507;-60
2022/01/09 16:39:35;;;;;;;26.80;16.77;;;;;;;0.28;88.82;98751.34;1700149;83;21635;-61
2022/01/09 16:42:02;;;;;;;30.25;17.48;;;;;;;0.25;88.73;98754.44;1694598;83;21482;-60
2022/01/09 16:44:28;;;;;;;30.88;18.65;;;;;;;0.33;88.30;98757.30;1697361;82;21499;-62
2022/01/09 16:46:55;;;;;;;30.17;18.80;;;;;;;0.41;88.06;98752.45;1704979;83;21554;-62
2022/01/09 16:49:22;;;;;;;32.48;18.62;;;;;;;0.40;87.97;98749.02;1708952;83;21574;-63
2022/01/09 16:51:48;;;;;;;30.92;17.12;;;;;;;0.34;87.98;98747.39;1707441;83;21498;-61
2022/01/09 16:54:15;;;;;;;26.02;16.65;;;;;;;0.32;87.76;98748.27;1699816;83;21498;-59
2022/01/09 16:56:42;;;;;;;31.17;18.45;;;;;;;0.36;87.45;98744.33;1696143;83;21002;-60
2022/01/09 16:59:10;;;;;;;32.78;18.27;;;;;;;0.39;87.16;98742.13;1703192;83;21550;-61
2022/01/09 17:01:40;;;;;;;26.95;18.15;;;;;;;0.36;87.12;98740.45;1695156;83;21507;-62
2022/01/09 17:04:08;;;;;;;30.85;18.73;;;;;;;0.30;87.12;98743.14;1705976;83;21502;-63
2022/01/09 17:06:37;;;;;;;30.60;17.57;;;;;;;0.29;87.06;98740.12;1702350;83;21545;-62
2022/01/09 17:09:08;;;;;;;30.40;17.45;;;;;;;0.35;86.80;98743.05;1755683;80;20958;-63
2022/01/09 17:11:36;;;;;;;27.58;17.57;;;;;;;0.40;86.43;98739.97;1755341;80;21519;-61
2022/01/09 17:14:04;;;;;;;32.85;18.12;;;;;;;0.36;86.33;98740.45;1758668;80;21072;-68
2022/01/09 17:16:30;;;;;;;30.92;18.52;;;;;;;0.30;86.43;98747.02;1754620;80;21531;-63
2022/01/09 17:18:58;;;;;;;32.78;18.75;;;;;;;0.24;86.40;98749.68;1747922;80;21596;-62
2022/01/09 17:21:25;;;;;;;31.40;17.40;;;;;;;0.28;86.26;98748.75;1755067;80;20935;-64
2022/01/09 17:23:51;;;;;;;30.35;17.35;;;;;;;0.36;86.04;98743.48;1755057;80;22152;-62
2022/01/09 17:26:19;;;;;;;30.93;18.57;;;;;;;0.35;86.03;98744.34;1760203;80;21480;-62
2022/01/09 17:28:46;;;;;;;31.68;18.00;;;;;;;0.28;86.07;98742.28;1770134;80;21543;-63
2022/01/09 17:31:13;;;;;;;33.45;18.27;;;;;;;0.22;86.06;98747.56;1754602;80;21466;-63
2022/01/09 17:33:43;;;;;;;31.37;18.07;;;;;;;0.22;86.06;98746.27;1755449;80;21471;-63
2022/01/09 17:36:15;;;;;;;34.35;19.27;;;;;;;0.30;85.92;98741.85;1758976;80;21826;-60
2022/01/09 17:38:42;;;;;;;32.90;19.25;;;;;;;0.32;85.74;98743.97;1757713;80;21499;-63
2022/01/09 17:41:09;;;;;;;34.97;20.20;;;;;;;0.28;85.82;98742.28;1753546;80;21596;-62
2022/01/09 17:43:36;;;;;;;32.50;18.77;;;;;;;0.25;85.91;98743.64;1763143;80;21478;-62
2022/01/09 17:46:03;;;;;;;31.27;17.80;;;;;;;0.23;85.94;98744.11;1755838;80;21629;-63
2022/01/09 17:48:30;;;;;;;29.18;18.37;;;;;;;0.28;85.71;98740.99;1755434;80;21765;-66
2022/01/09 17:50:59;;;;;;;36.43;18.43;;;;;;;0.31;85.45;98741.41;1754645;80;21511;-62
2022/01/09 17:53:27;;;;;;;29.60;18.40;;;;;;;0.27;85.48;98745.77;1755613;80;21780;-63
2022/01/09 17:55:58;;;;;;;29.00;17.48;;;;;;;0.24;85.69;98748.39;1756131;80;21102;-61
2022/01/09 17:58:27;;;;;;;32.53;17.30;;;;;;;0.24;85.68;98743.22;1762639;80;20921;-61
2022/01/09 18:00:54;;;;;;;29.27;17.25;;;;;;;0.29;85.47;98744.45;1761834;80;21774;-59
2022/01/09 18:03:22;;;;;;;29.67;17.77;;;;;;;0.36;85.32;98749.50;1765860;80;21514;-59
2022/01/09 18:05:48;;;;;;;34.23;19.05;;;;;;;0.36;85.23;98752.09;1760238;80;21454;-63
2022/01/09 18:08:15;;;;;;;27.50;16.73;;;;;;;0.32;85.23;98753.02;1760048;80;21474;-62
2022/01/09 18:10:42;;;;;;;29.37;16.87;;;;;;;0.27;85.31;98757.84;1761458;80;21508;-62
2022/01/09 18:13:09;;;;;;;30.50;18.37;;;;;;;0.27;85.34;98752.23;1757429;80;21982;-63
2022/01/09 18:15:36;;;;;;;32.45;18.70;;;;;;;0.34;85.05;98750.39;1758456;80;21686;-63
2022/01/09 18:18:03;;;;;;;30.92;19.05;;;;;;;0.39;84.99;98749.44;1755696;80;21537;-63
2022/01/09 18:20:30;;;;;;;33.20;18.97;;;;;;;0.36;85.01;98753.83;1756979;80;21525;-62
2022/01/09 18:22:56;;;;;;;34.92;18.48;;;;;;;0.36;85.15;98762.88;1756986;80;21605;-62
2022/01/09 18:25:25;;;;;;;32.10;19.00;;;;;;;0.34;85.11;98762.02;1764354;80;22120;-61
2022/01/09 18:27:52;;;;;;;31.85;19.52;;;;;;;0.34;84.95;98764.61;1761874;80;21519;-61
2022/01/09 18:30:19;;;;;;;30.17;18.92;;;;;;;0.43;84.73;98766.20;1753146;80;21626;-62
2022/01/09 18:32:45;;;;;;;32.07;20.17;;;;;;;0.41;84.79;98758.47;1757645;80;21500;-60
2022/01/09 18:35:12;;;;;;;32.73;19.73;;;;;;;0.36;84.80;98763.73;1752102;80;21431;-64
2022/01/09 18:37:39;;;;;;;31.40;17.62;;;;;;;0.32;84.89;98759.48;1756107;80;21726;-62
2022/01/09 18:40:07;;;;;;;31.33;17.67;;;;;;;0.31;84.96;98761.64;1767000;80;21569;-60
2022/01/09 18:42:35;;;;;;;30.97;18.52;;;;;;;0.36;84.75;98757.27;1756716;80;21560;-61
2022/01/09 18:45:06;;;;;;;31.33;19.30;;;;;;;0.39;84.62;98756.34;1753971;80;21671;-61
2022/01/09 18:47:35;;;;;;;31.82;20.02;;;;;;;0.35;84.67;98757.28;1757667;80;21514;-62
2022/01/09 18:50:03;;;;;;;30.17;18.30;;;;;;;0.29;84.72;98763.40;1770181;80;22624;-61
2022/01/09 18:52:30;;;;;;;32.03;18.32;;;;;;;0.26;84.86;98763.88;1773023;80;21474;-60
2022/01/09 18:54:57;;;;;;;31.90;19.32;;;;;;;0.28;84.90;98757.80;1760699;80;21480;-66
2022/01/09 18:57:24;;;;;;;32.42;18.98;;;;;;;0.38;84.70;98754.21;1769175;80;21503;-60
2022/01/09 18:59:51;;;;;;;30.90;18.87;;;;;;;0.40;84.62;98752.90;1768407;80;21561;-62
2022/01/09 19:02:17;;;;;;;33.42;19.40;;;;;;;0.37;84.70;98757.66;1760831;80;22088;-60
2022/01/09 19:04:44;;;;;;;31.80;18.17;;;;;;;0.34;84.64;98759.44;1769043;80;21554;-60
2022/01/09 19:07:11;;;;;;;32.65;17.87;;;;;;;0.28;84.69;98755.22;1769345;80;21497;-60
2022/01/09 19:09:38;;;;;;;32.58;18.32;;;;;;;0.31;84.60;98760.35;1761038;80;21536;-60
2022/01/09 19:12:06;;;;;;;30.12;17.77;;;;;;;0.37;84.47;98764.13;1754667;80;21668;-60
2022/01/09 19:14:34;;;;;;;33.92;20.52;;;;;;;0.40;84.45;98761.95;1762059;80;22132;-60
2022/01/09 19:17:03;;;;;;;31.68;19.55;;;;;;;0.37;84.53;98768.00;1762170;80;21652;-58
2022/01/09 19:19:30;;;;;;;31.00;18.30;;;;;;;0.36;84.55;98767.61;1755691;80;21523;-63
2022/01/09 19:21:57;;;;;;;31.25;17.32;;;;;;;0.33;84.47;98768.94;1751796;80;21451;-65
2022/01/09 19:24:25;;;;;;;36.90;19.80;;;;;;;0.38;84.32;98762.41;1765642;80;21483;-63
2022/01/09 19:26:52;;;;;;;29.50;19.12;;;;;;;0.42;84.20;98759.34;1755476;80;21821;-64
2022/01/09 19:29:19;;;;;;;;;;;;;;;0.37;84.34;98760.25;1757426;80;21083;-64
2022/01/09 19:31:47;;;;;;;31.48;18.20;;;;;;;0.34;84.37;98764.19;1767462;80;20429;-62
2022/01/09 19:34:14;;;;;;;33.98;18.37;;;;;;;0.30;84.38;98763.83;1760480;80;21443;-67
2022/01/09 19:36:42;;;;;;;24.45;14.75;;;;;;;0.33;84.30;98764.21;1759435;80;21633;-66
2022/01/09 19:39:09;;;;;;;35.13;20.00;;;;;;;0.37;84.12;98762.83;1754481;80;22021;-67
2022/01/09 19:41:37;;;;;;;36.98;21.42;;;;;;;0.41;84.17;98770.55;1767409;80;24291;-61
2022/01/09 19:44:05;;;;;;;40.40;21.02;;;;;;;0.35;84.17;98766.33;1758760;80;21476;-62
2022/01/09 19:46:35;;;;;;;42.90;21.62;;;;;;;0.31;84.20;98769.84;1754347;80;22170;-63
2022/01/09 19:49:03;;;;;;;40.50;20.92;;;;;;;0.25;84.28;98772.09;1764643;80;21510;-66
2022/01/09 19:51:30;;;;;;;34.75;19.50;;;;;;;0.27;84.32;98769.04;1771762;80;21521;-65
2022/01/09 19:53:57;;;;;;;38.25;21.90;;;;;;;0.39;84.24;98780.47;1757238;80;20990;-62
2022/01/09 19:56:24;;;;;;;41.85;23.18;;;;;;;0.45;84.16;98779.52;1768129;80;21537;-60
2022/01/09 19:58:51;;;;;;;36.28;21.55;;;;;;;0.44;84.12;98780.42;1769911;80;21501;-60
2022/01/09 20:01:17;;;;;;;37.63;22.50;;;;;;;0.39;84.11;98775.30;1759201;80;21511;-60
2022/01/09 20:03:44;;;;;;;39.35;20.50;;;;;;;0.34;84.15;98773.24;1758690;80;21522;-63
2022/01/09 20:06:11;;;;;;;36.88;19.57;;;;;;;0.37;84.16;98778.34;1758473;80;21529;-62
2022/01/09 20:08:37;;;;;;;35.25;20.50;;;;;;;0.47;83.96;98791.14;1763793;80;20990;-60
2022/01/09 20:11:04;;;;;;;37.38;21.07;;;;;;;0.47;83.91;98782.09;1767828;80;21538;-60
2022/01/09 20:13:32;;;;;;;37.38;20.23;;;;;;;0.43;83.99;98782.58;1762309;80;21568;-66
2022/01/09 20:15:59;;;;;;;38.17;20.92;;;;;;;0.38;84.03;98788.28;1732219;81;21431;-66
2022/01/09 20:18:26;;;;;;;34.20;20.10;;;;;;;0.32;84.10;98786.64;1732448;82;21443;-65
2022/01/09 20:20:53;;;;;;;32.28;19.25;;;;;;;0.36;84.05;98780.54;1709559;82;21553;-64
2022/01/09 20:23:19;;;;;;;38.05;21.93;;;;;;;0.44;84.10;98778.28;1714393;81;21589;-63
2022/01/09 20:25:47;;;;;;;37.58;21.93;;;;;;;0.50;84.08;98775.14;1700402;82;21610;-64
2022/01/09 20:28:14;;;;;;;30.95;19.73;;;;;;;0.48;83.98;98769.59;1710024;83;21798;-63
2022/01/09 20:30:41;;;;;;;40.30;21.30;;;;;;;0.47;83.99;98773.03;1723675;82;21495;-65
2022/01/09 20:33:08;;;;;;;33.98;18.82;;;;;;;0.47;83.77;98775.63;1695592;83;21539;-63
2022/01/09 20:35:34;;;;;;;31.05;19.20;;;;;;;0.50;83.46;98787.23;1710086;82;21514;-64
2022/01/09 20:38:01;;;;;;;37.70;21.27;;;;;;;0.54;83.46;98780.67;1718091;82;21514;-66
2022/01/09 20:40:28;;;;;;;33.23;20.48;;;;;;;0.52;83.47;98773.83;1697879;82;22016;-65
2022/01/09 20:42:58;;;;;;;29.07;17.92;;;;;;;0.48;83.43;98779.94;1744546;80;21580;-63
2022/01/09 20:45:23;;;;;;;28.75;17.67;;;;;;;0.43;83.38;98785.16;1740120;80;21501;-64
2022/01/09 20:47:50;;;;;;;30.80;17.07;;;;;;;0.46;83.44;98781.69;1758910;80;21680;-63
2022/01/09 20:50:16;;;;;;;34.55;18.17;;;;;;;0.54;83.21;98783.70;1739872;80;21018;-62
2022/01/09 20:52:43;;;;;;;29.33;19.03;;;;;;;0.56;83.08;98779.36;1744583;80;22099;-63
2022/01/09 20:55:11;;;;;;;32.85;17.98;;;;;;;0.50;83.07;98784.19;1744171;80;21551;-67
2022/01/09 20:57:38;;;;;;;36.30;18.45;;;;;;;0.44;83.20;98786.88;1745920;80;21554;-63
2022/01/09 21:00:09;;;;;;;29.70;17.80;;;;;;;0.37;83.26;98774.47;1744800;80;21476;-61
2022/01/09 21:02:35;;;;;;;32.10;17.25;;;;;;;0.39;83.42;98773.16;1750232;80;21519;-63
2022/01/09 21:05:02;;;;;;;29.65;19.70;;;;;;;0.47;83.49;98773.03;1742386;80;22047;-64
2022/01/09 21:07:29;;;;;;;34.20;19.70;;;;;;;0.52;83.47;98792.78;1743211;80;21529;-62
2022/01/09 21:09:57;;;;;;;42.93;23.35;;;;;;;0.49;83.52;98789.38;1752827;80;21003;-62
2022/01/09 21:12:23;;;;;;;47.45;24.10;;;;;;;0.45;83.63;98788.57;1750716;80;21347;-60
2022/01/09 21:14:51;;;;;;;54.97;25.57;;;;;;;0.42;83.60;98789.09;1754164;79;21530;-60
2022/01/09 21:17:17;;;;;;;49.95;23.87;;;;;;;0.44;83.62;98802.41;1746502;80;21839;-59
2022/01/09 21:19:45;;;;;;;46.73;22.30;;;;;;;0.51;83.47;98804.44;1739744;80;21414;-61
2022/01/09 21:22:13;;;;;;;46.65;23.20;;;;;;;0.53;83.41;98801.42;1755299;80;21484;-66
2022/01/09 21:24:40;;;;;;;81.00;41.65;;;;;;;0.49;83.64;98803.61;1695435;83;21017;-64
2022/01/09 21:27:07;;;;;;;56.77;29.87;;;;;;;0.45;83.85;98795.04;1688552;83;21480;-63
